createdAt,value
2022-08-16T00:00:39.548Z,57.60
2022-08-16T00:03:07.385Z,57.31
2022-08-16T00:05:48.253Z,57.22
2022-08-16T00:08:35.777Z,57.29
2022-08-16T00:11:04.839Z,57.48
2022-08-16T00:13:33.690Z,57.55
2022-08-16T00:17:01.303Z,57.29
2022-08-16T00:18:55.506Z,57.30
2022-08-16T00:21:23.310Z,57.25
2022-08-16T00:23:50.003Z,57.19
2022-08-16T00:26:34.835Z,57.25
2022-08-16T00:29:04.758Z,57.59
2022-08-16T00:31:58.991Z,57.90
2022-08-16T00:34:22.597Z,57.63
2022-08-16T00:37:09.365Z,57.60
2022-08-16T00:39:36.121Z,57.62
2022-08-16T00:42:03.207Z,57.83
2022-08-16T00:44:32.608Z,57.78
2022-08-16T00:47:06.478Z,57.39
2022-08-16T00:49:39.416Z,57.41
2022-08-16T00:52:29.759Z,57.38
2022-08-16T00:54:59.698Z,57.91
2022-08-16T00:57:27.523Z,58.26
2022-08-16T01:00:19.985Z,57.65
2022-08-16T01:02:51.020Z,58.21
2022-08-16T01:05:18.982Z,58.05
2022-08-16T01:07:53.238Z,58.18
2022-08-16T01:10:32.932Z,58.71
2022-08-16T01:13:12.215Z,58.52
2022-08-16T01:15:45.647Z,58.29
2022-08-16T01:18:40.558Z,58.32
2022-08-16T01:21:33.826Z,59.23
2022-08-16T01:24:52.613Z,58.84
2022-08-16T01:27:08.513Z,59.27
2022-08-16T01:29:58.211Z,59.26
2022-08-16T01:32:33.472Z,59.66
2022-08-16T01:35:30.594Z,59.98
2022-08-16T01:38:25.923Z,59.65
2022-08-16T01:41:04.834Z,59.16
2022-08-16T01:43:34.674Z,59.18
2022-08-16T01:46:30.103Z,59.46
2022-08-16T01:53:26.631Z,59.37
2022-08-16T01:56:03.755Z,58.91
2022-08-16T01:58:33.346Z,59.29
2022-08-16T02:01:00.525Z,59.18
2022-08-16T02:03:29.584Z,59.22
2022-08-16T02:05:56.391Z,59.26
2022-08-16T02:08:33.524Z,59.23
2022-08-16T02:11:04.757Z,59.39
2022-08-16T02:13:33.107Z,59.44
2022-08-16T02:16:01.598Z,59.36
2022-08-16T02:18:28.775Z,59.57
2022-08-16T02:20:59.548Z,59.58
2022-08-16T02:23:26.485Z,59.77
2022-08-16T02:25:56.532Z,59.88
2022-08-16T02:28:26.189Z,59.42
2022-08-16T02:30:55.234Z,59.46
2022-08-16T02:33:24.479Z,59.53
2022-08-16T02:35:55.191Z,59.95
2022-08-16T02:38:29.043Z,60.06
2022-08-16T02:41:00.819Z,60.04
2022-08-16T02:43:33.217Z,59.74
2022-08-16T02:46:07.410Z,60.09
2022-08-16T02:48:38.468Z,60.31
2022-08-16T02:51:10.661Z,60.24
2022-08-16T02:53:44.639Z,60.46
2022-08-16T02:56:16.912Z,60.58
2022-08-16T02:58:45.431Z,60.44
2022-08-16T03:01:23.990Z,60.48
2022-08-16T03:04:41.057Z,60.58
2022-08-16T03:06:43.165Z,60.24
2022-08-16T03:09:20.178Z,60.68
2022-08-16T03:11:51.699Z,60.53
2022-08-16T03:14:21.425Z,60.39
2022-08-16T03:16:59.693Z,60.35
2022-08-16T03:19:46.828Z,60.41
2022-08-16T03:22:28.936Z,60.81
2022-08-16T03:25:07.669Z,60.73
2022-08-16T03:27:36.622Z,60.65
2022-08-16T03:30:21.594Z,60.28
2022-08-16T03:33:04.315Z,60.21
2022-08-16T03:35:40.132Z,60.67
2022-08-16T03:38:34.017Z,61.15
2022-08-16T03:41:14.386Z,60.99
2022-08-16T03:43:55.641Z,61.17
2022-08-16T03:46:47.217Z,60.70
2022-08-16T03:49:14.506Z,60.50
2022-08-16T03:51:44.512Z,60.73
2022-08-16T03:54:18.836Z,60.54
2022-08-16T03:56:56.834Z,60.41
2022-08-16T03:59:25.091Z,60.80
2022-08-16T04:01:53.773Z,60.95
2022-08-16T04:04:32.285Z,60.84
2022-08-16T04:07:00.467Z,60.54
2022-08-16T04:09:35.472Z,60.64
2022-08-16T04:12:11.040Z,60.25
2022-08-16T04:14:54.408Z,59.98
2022-08-16T04:17:21.942Z,59.87
2022-08-16T04:19:51.622Z,59.76
2022-08-16T04:22:28.151Z,60.32
2022-08-16T04:25:01.852Z,60.05
2022-08-16T04:27:35.221Z,60.49
2022-08-16T04:30:04.311Z,60.31
2022-08-16T04:32:42.702Z,60.40
2022-08-16T04:35:18.187Z,60.25
2022-08-16T04:37:48.156Z,59.79
2022-08-16T04:40:25.430Z,59.35
2022-08-16T04:42:55.618Z,59.53
2022-08-16T04:45:36.340Z,59.83
2022-08-16T04:48:10.314Z,59.39
2022-08-16T04:50:50.393Z,59.61
2022-08-16T04:53:20.656Z,59.67
2022-08-16T04:55:53.338Z,59.63
2022-08-16T04:58:44.781Z,59.96
2022-08-16T05:01:17.642Z,59.58
2022-08-16T05:04:00.522Z,59.48
2022-08-16T05:06:42.055Z,59.43
2022-08-16T05:09:18.780Z,59.30
2022-08-16T05:11:57.456Z,58.89
2022-08-16T05:14:45.618Z,58.95
2022-08-16T05:17:17.287Z,58.98
2022-08-16T05:19:46.756Z,59.30
2022-08-16T05:22:30.100Z,58.89
2022-08-16T05:25:08.677Z,58.86
2022-08-16T05:27:43.128Z,58.83
2022-08-16T05:30:34.792Z,58.92
2022-08-16T05:33:00.967Z,58.93
2022-08-16T05:35:28.382Z,58.92
2022-08-16T05:38:32.665Z,58.77
2022-08-16T05:41:09.546Z,58.73
2022-08-16T05:43:43.693Z,58.75
2022-08-16T05:46:29.564Z,59.14
2022-08-16T05:49:08.692Z,59.15
2022-08-16T05:51:38.754Z,58.89
2022-08-16T05:54:11.216Z,59.22
2022-08-16T05:56:41.032Z,59.13
2022-08-16T05:59:10.664Z,58.97
2022-08-16T06:01:39.334Z,59.09
2022-08-16T06:04:13.574Z,59.01
2022-08-16T06:06:57.840Z,59.27
2022-08-16T06:09:42.639Z,59.06
2022-08-16T06:12:26.378Z,59.28
2022-08-16T06:14:59.181Z,59.17
2022-08-16T06:17:42.609Z,59.29
2022-08-16T06:20:23.158Z,59.19
2022-08-16T06:22:58.581Z,58.65
2022-08-16T06:25:39.629Z,58.75
2022-08-16T06:28:16.610Z,58.60
2022-08-16T06:30:45.162Z,58.86
2022-08-16T06:33:22.155Z,58.57
2022-08-16T06:35:55.097Z,59.05
2022-08-16T06:38:32.935Z,59.09
2022-08-16T06:41:14.066Z,59.21
2022-08-16T06:43:43.852Z,59.04
2022-08-16T06:46:39.712Z,59.56
2022-08-16T06:49:14.785Z,58.45
2022-08-16T06:52:58.137Z,60.02
2022-08-16T06:54:56.375Z,58.88
2022-08-16T06:57:23.659Z,58.54
2022-08-16T06:59:53.301Z,58.80
2022-08-16T07:02:36.099Z,59.16
2022-08-16T07:05:18.240Z,58.89
2022-08-16T07:07:59.292Z,59.19
2022-08-16T07:10:27.982Z,58.41
2022-08-16T07:14:00.660Z,58.55
2022-08-16T07:16:14.391Z,57.95
2022-08-16T07:19:10.684Z,58.98
2022-08-16T07:25:54.556Z,58.26
2022-08-16T07:28:46.362Z,58.64
2022-08-16T07:31:14.320Z,58.17
2022-08-16T07:33:51.236Z,58.15
2022-08-16T07:36:23.315Z,57.75
2022-08-16T07:38:52.415Z,57.62
2022-08-16T07:41:20.144Z,57.37
2022-08-16T07:43:52.356Z,57.25
2022-08-16T07:46:39.437Z,56.96
2022-08-16T07:49:13.622Z,56.92
2022-08-16T07:51:41.509Z,57.05
2022-08-16T07:54:16.937Z,56.68
2022-08-16T07:56:49.338Z,56.63
2022-08-16T07:59:16.248Z,56.58
2022-08-16T08:01:43.476Z,56.67
2022-08-16T08:04:13.969Z,56.81
2022-08-16T08:06:44.009Z,56.65
2022-08-16T08:09:14.479Z,56.83
2022-08-16T08:11:59.745Z,56.53
2022-08-16T08:14:32.708Z,56.55
2022-08-16T08:17:08.582Z,56.47
2022-08-16T08:24:15.476Z,56.16
2022-08-16T08:26:43.381Z,56.28
2022-08-16T08:29:12.185Z,56.04
2022-08-16T08:31:42.212Z,55.47
2022-08-16T08:34:17.364Z,55.61
2022-08-16T08:36:45.896Z,55.58
2022-08-16T08:39:34.345Z,55.15
2022-08-16T08:42:26.634Z,55.61
2022-08-16T08:44:55.158Z,55.91
2022-08-16T08:47:24.678Z,55.80
2022-08-16T08:49:55.541Z,55.40
2022-08-16T08:52:34.801Z,55.37
2022-08-16T08:55:09.498Z,55.63
2022-08-16T08:57:43.066Z,55.18
2022-08-16T09:00:26.779Z,55.24
2022-08-16T09:02:57.900Z,55.03
2022-08-16T09:05:35.561Z,54.97
2022-08-16T09:08:06.024Z,54.48
2022-08-16T09:10:59.258Z,54.56
2022-08-16T09:13:32.849Z,54.13
2022-08-16T09:16:02.059Z,54.05
2022-08-16T09:18:35.885Z,54.27
2022-08-16T09:21:07.063Z,53.91
2022-08-16T09:24:09.811Z,53.21
2022-08-16T09:26:45.714Z,53.60
2022-08-16T09:29:23.922Z,53.12
2022-08-16T09:32:07.908Z,53.19
2022-08-16T09:34:35.226Z,53.35
2022-08-16T09:37:17.767Z,53.16
2022-08-16T09:39:50.449Z,53.29
2022-08-16T09:42:19.030Z,53.47
2022-08-16T09:45:10.809Z,53.12
2022-08-16T09:47:57.039Z,53.01
2022-08-16T09:50:26.766Z,52.67
2022-08-16T09:53:05.756Z,52.71
2022-08-16T09:55:33.835Z,52.36
2022-08-16T09:58:41.779Z,52.59
2022-08-16T10:01:01.003Z,52.32
2022-08-16T10:03:30.412Z,52.69
2022-08-16T10:05:57.606Z,52.45
2022-08-16T10:08:26.274Z,51.89
2022-08-16T10:11:12.570Z,51.92
2022-08-16T10:13:41.414Z,51.45
2022-08-16T10:19:01.512Z,51.83
2022-08-16T10:21:29.078Z,51.87
2022-08-16T10:23:58.670Z,52.05
2022-08-16T10:27:20.323Z,51.68
2022-08-16T10:29:12.094Z,51.72
2022-08-16T10:31:53.250Z,51.49
2022-08-16T10:34:32.058Z,50.85
2022-08-16T10:37:35.779Z,50.65
2022-08-16T10:40:29.378Z,50.04
2022-08-16T10:43:00.006Z,49.42
2022-08-16T10:45:28.778Z,49.37
2022-08-16T10:48:06.353Z,49.56
2022-08-16T10:55:44.742Z,49.53
2022-08-16T10:58:17.095Z,49.29
2022-08-16T11:00:45.980Z,49.20
2022-08-16T11:06:06.284Z,48.80
2022-08-16T11:08:41.902Z,48.63
2022-08-16T11:11:19.108Z,48.62
2022-08-16T11:14:10.885Z,48.49
2022-08-16T11:19:22.816Z,48.39
2022-08-16T11:24:44.573Z,47.85
2022-08-16T11:27:23.921Z,47.50
2022-08-16T11:29:55.218Z,47.34
2022-08-16T11:32:31.864Z,47.51
2022-08-16T11:35:14.062Z,47.10
2022-08-16T11:38:46.679Z,47.00
2022-08-16T11:40:52.458Z,46.76
2022-08-16T11:43:22.841Z,46.46
2022-08-16T11:45:50.698Z,45.94
2022-08-16T11:48:24.725Z,45.86
2022-08-16T11:50:52.820Z,46.01
2022-08-16T11:53:22.035Z,46.36
2022-08-16T11:56:40.077Z,45.11
2022-08-16T11:59:09.866Z,45.12
2022-08-16T12:01:44.198Z,45.97
2022-08-16T12:04:23.031Z,46.14
2022-08-16T12:06:50.298Z,45.66
2022-08-16T12:09:20.551Z,45.51
2022-08-16T12:11:53.234Z,45.64
2022-08-16T12:14:22.826Z,45.66
2022-08-16T12:16:55.564Z,45.66
2022-08-16T12:19:33.874Z,45.72
2022-08-16T12:22:05.591Z,45.85
2022-08-16T12:24:52.006Z,45.45
2022-08-16T12:27:23.098Z,46.16
2022-08-16T12:29:54.261Z,45.65
2022-08-16T12:33:16.207Z,45.36
2022-08-16T12:35:57.821Z,45.47
2022-08-16T12:39:20.319Z,45.77
2022-08-16T12:41:50.022Z,45.54
2022-08-16T12:44:43.107Z,45.49
2022-08-16T12:47:29.558Z,45.93
2022-08-16T12:49:58.634Z,45.59
2022-08-16T12:52:33.484Z,45.89
2022-08-16T12:55:02.032Z,45.18
2022-08-16T12:57:36.625Z,45.53
2022-08-16T13:00:26.273Z,44.96
2022-08-16T13:02:53.999Z,44.96
2022-08-16T13:05:20.666Z,44.56
2022-08-16T13:07:51.897Z,44.51
2022-08-16T13:10:37.704Z,44.65
2022-08-16T13:13:06.931Z,44.07
2022-08-16T13:15:51.527Z,44.88
2022-08-16T13:18:34.029Z,44.75
2022-08-16T13:21:06.110Z,44.59
2022-08-16T13:23:35.646Z,44.25
2022-08-16T13:26:05.165Z,44.37
2022-08-16T13:28:35.765Z,43.93
2022-08-16T13:31:05.553Z,43.60
2022-08-16T13:33:38.407Z,43.91
2022-08-16T13:36:26.117Z,43.71
2022-08-16T13:38:59.887Z,43.86
2022-08-16T13:41:30.282Z,43.69
2022-08-16T13:44:00.422Z,43.53
2022-08-16T13:46:28.751Z,43.44
2022-08-16T13:48:57.103Z,43.44
2022-08-16T13:51:29.405Z,43.07
2022-08-16T13:54:03.613Z,43.06
2022-08-16T13:56:39.515Z,43.37
2022-08-16T13:59:16.506Z,43.25
2022-08-16T14:01:55.257Z,42.84
2022-08-16T14:04:27.985Z,42.96
2022-08-16T14:06:58.488Z,42.47
2022-08-16T14:09:27.039Z,43.10
2022-08-16T14:12:44.366Z,42.10
2022-08-16T14:15:13.837Z,41.77
2022-08-16T14:18:30.903Z,41.96
2022-08-16T14:20:28.203Z,42.10
2022-08-16T14:22:58.074Z,41.98
2022-08-16T14:25:25.675Z,42.09
2022-08-16T14:27:54.677Z,42.07
2022-08-16T14:30:22.197Z,42.29
2022-08-16T14:32:49.856Z,42.54
2022-08-16T14:35:21.653Z,41.90
2022-08-16T14:37:57.121Z,41.86
2022-08-16T14:40:24.246Z,41.77
2022-08-16T14:42:55.824Z,42.24
2022-08-16T14:45:26.255Z,41.97
2022-08-16T14:47:53.844Z,41.36
2022-08-16T14:50:24.007Z,41.12
2022-08-16T14:53:04.027Z,40.49
2022-08-16T14:55:32.546Z,40.32
2022-08-16T14:57:59.392Z,40.32
2022-08-16T15:00:33.233Z,40.62
2022-08-16T15:03:26.761Z,39.59
2022-08-16T15:05:54.049Z,39.97
2022-08-16T15:08:20.950Z,40.46
2022-08-16T15:11:02.912Z,40.49
2022-08-16T15:13:29.654Z,40.61
2022-08-16T15:16:02.986Z,40.08
2022-08-16T15:18:31.933Z,39.34
2022-08-16T15:21:03.676Z,39.75
2022-08-16T15:23:33.693Z,39.89
2022-08-16T15:26:02.824Z,39.98
2022-08-16T15:28:32.846Z,39.98
2022-08-16T15:31:06.038Z,39.72
2022-08-16T15:33:38.971Z,39.63
2022-08-16T15:36:12.229Z,39.66
2022-08-16T15:38:58.191Z,39.13
2022-08-16T15:42:41.519Z,38.89
2022-08-16T15:45:13.854Z,38.65
2022-08-16T15:47:40.574Z,39.08
2022-08-16T15:50:15.607Z,38.87
2022-08-16T15:52:42.883Z,39.46
2022-08-16T16:04:08.325Z,39.82
2022-08-16T16:06:35.041Z,39.70
2022-08-16T16:09:02.310Z,40.14
2022-08-16T16:11:28.968Z,40.27
2022-08-16T16:13:57.860Z,40.38
2022-08-16T16:16:24.632Z,39.69
2022-08-16T16:18:52.003Z,39.52
2022-08-16T16:21:20.239Z,40.14
2022-08-16T16:23:55.011Z,40.87
2022-08-16T16:26:24.989Z,41.15
2022-08-16T16:29:08.784Z,41.06
2022-08-16T16:31:43.956Z,41.37
2022-08-16T16:34:32.375Z,40.82
2022-08-16T16:37:02.685Z,41.01
2022-08-16T16:39:32.728Z,41.22
2022-08-16T16:41:59.757Z,41.18
2022-08-16T16:44:31.918Z,41.36
2022-08-16T16:47:00.667Z,41.36
2022-08-16T16:49:27.438Z,41.61
2022-08-16T16:51:55.240Z,41.40
2022-08-16T16:54:35.395Z,41.38
2022-08-16T16:57:04.150Z,41.64
2022-08-16T16:59:30.843Z,41.72
2022-08-16T17:02:38.406Z,41.68
2022-08-16T17:04:47.287Z,41.74
2022-08-16T17:07:14.216Z,41.70
2022-08-16T17:10:09.591Z,41.84
2022-08-16T17:12:47.185Z,41.83
2022-08-16T17:15:15.084Z,41.77
2022-08-16T17:18:00.287Z,41.70
2022-08-16T17:20:29.119Z,41.50
2022-08-16T17:22:56.454Z,41.83
2022-08-16T17:25:26.525Z,41.75
2022-08-16T17:28:59.010Z,41.78
2022-08-16T17:30:51.744Z,41.74
2022-08-16T17:33:20.884Z,41.72
2022-08-16T17:35:55.303Z,41.41
2022-08-16T17:38:39.031Z,41.38
2022-08-16T17:41:10.989Z,41.42
2022-08-16T17:43:44.456Z,41.34
2022-08-16T17:46:50.831Z,41.37
2022-08-16T17:48:58.618Z,41.33
2022-08-16T17:51:27.547Z,41.19
2022-08-16T17:53:54.343Z,41.28
2022-08-16T17:56:21.281Z,41.73
2022-08-16T17:58:47.991Z,41.94
2022-08-16T18:01:14.789Z,41.80
2022-08-16T18:04:06.804Z,42.23
2022-08-16T18:06:33.587Z,42.20
2022-08-16T18:09:03.418Z,42.46
2022-08-16T18:11:33.672Z,42.18
2022-08-16T18:14:00.418Z,42.20
2022-08-16T18:16:27.074Z,42.21
2022-08-16T18:18:53.768Z,42.31
2022-08-16T18:21:39.235Z,42.41
2022-08-16T18:24:06.156Z,42.33
2022-08-16T18:26:33.174Z,42.44
2022-08-16T18:28:59.862Z,42.69
2022-08-16T18:31:26.701Z,42.75
2022-08-16T18:33:55.958Z,42.80
2022-08-16T18:40:56.081Z,43.17
2022-08-16T18:44:22.400Z,43.25
2022-08-16T18:46:14.964Z,43.27
2022-08-16T18:48:41.681Z,43.32
2022-08-16T18:51:12.909Z,43.65
2022-08-16T18:55:14.225Z,43.49
2022-08-16T18:57:41.857Z,44.20
2022-08-16T19:00:12.311Z,44.68
2022-08-16T19:02:57.966Z,44.86
2022-08-16T19:05:29.153Z,44.53
2022-08-16T19:07:55.813Z,44.77
2022-08-16T19:10:23.620Z,44.28
2022-08-16T19:12:50.456Z,44.64
2022-08-16T19:15:21.222Z,44.84
2022-08-16T19:17:47.994Z,44.57
2022-08-16T19:20:17.378Z,44.64
2022-08-16T19:23:04.613Z,44.55
2022-08-16T19:25:46.352Z,44.91
2022-08-16T19:28:50.755Z,45.28
2022-08-16T19:31:25.483Z,45.23
2022-08-16T19:33:55.384Z,45.06
2022-08-16T19:36:31.140Z,45.47
2022-08-16T19:39:05.405Z,45.22
2022-08-16T19:41:35.211Z,45.24
2022-08-16T19:44:02.143Z,45.14
2022-08-16T19:46:28.823Z,45.27
2022-08-16T19:48:56.674Z,45.24
2022-08-16T19:51:23.338Z,45.45
2022-08-16T19:53:50.005Z,45.51
2022-08-16T19:56:16.670Z,45.73
2022-08-16T19:59:01.961Z,46.02
2022-08-16T20:01:30.104Z,45.97
2022-08-16T20:03:56.856Z,46.12
2022-08-16T20:06:37.730Z,46.02
2022-08-16T20:09:06.060Z,46.63
2022-08-16T20:11:33.159Z,46.26
2022-08-16T20:13:59.950Z,46.34
2022-08-16T20:16:26.630Z,46.22
2022-08-16T20:18:53.347Z,45.96
2022-08-16T20:21:20.046Z,45.94
2022-08-16T20:23:46.751Z,46.41
2022-08-16T20:26:13.470Z,46.76
2022-08-16T20:28:54.283Z,46.68
2022-08-16T20:31:22.500Z,46.84
2022-08-16T20:33:50.300Z,46.82
2022-08-16T20:36:17.076Z,46.91
2022-08-16T20:38:46.664Z,47.09
2022-08-16T20:41:13.607Z,46.71
2022-08-16T20:43:40.709Z,46.52
2022-08-16T20:46:07.597Z,46.68
2022-08-16T20:48:34.243Z,46.25
2022-08-16T20:51:01.047Z,46.02
2022-08-16T20:53:27.738Z,46.30
2022-08-16T20:55:54.484Z,46.17
2022-08-16T20:58:21.129Z,46.19
2022-08-16T21:00:47.960Z,46.81
2022-08-16T21:03:14.969Z,46.58
2022-08-16T21:05:42.723Z,47.00
2022-08-16T21:08:32.833Z,47.08
2022-08-16T21:10:56.862Z,46.99
2022-08-16T21:13:25.557Z,46.95
2022-08-16T21:15:52.304Z,46.87
2022-08-16T21:18:18.958Z,46.88
2022-08-16T21:20:45.601Z,47.09
2022-08-16T21:23:12.290Z,46.77
2022-08-16T21:25:42.135Z,46.67
2022-08-16T21:28:38.845Z,46.67
2022-08-16T21:31:09.707Z,47.16
2022-08-16T21:33:36.811Z,47.08
2022-08-16T21:36:03.679Z,47.57
2022-08-16T21:38:31.115Z,47.66
2022-08-16T21:40:59.283Z,47.25
2022-08-16T21:43:31.715Z,46.98
2022-08-16T21:45:59.914Z,47.79
2022-08-16T21:48:34.752Z,46.94
2022-08-16T21:51:09.378Z,47.02
2022-08-16T21:53:36.221Z,46.92
2022-08-16T21:56:05.214Z,47.20
2022-08-16T21:58:32.507Z,47.03
2022-08-16T22:01:00.331Z,47.32
2022-08-16T22:03:27.245Z,47.80
2022-08-16T22:06:11.678Z,47.86
2022-08-16T22:08:50.470Z,48.75
2022-08-16T22:11:25.129Z,48.77
2022-08-16T22:13:58.926Z,48.23
2022-08-16T22:16:32.206Z,48.54
2022-08-16T22:18:59.565Z,48.51
2022-08-16T22:21:26.407Z,48.40
2022-08-16T22:23:55.129Z,48.04
2022-08-16T22:26:29.977Z,48.18
2022-08-16T22:28:59.399Z,48.50
2022-08-16T22:31:27.308Z,48.66
2022-08-16T22:33:54.861Z,48.90
2022-08-16T22:36:21.562Z,48.83
2022-08-16T22:38:55.737Z,49.06
2022-08-16T22:41:26.161Z,49.09
2022-08-16T22:43:53.088Z,49.32
2022-08-16T22:46:19.833Z,49.32
2022-08-16T22:48:49.892Z,49.39
2022-08-16T22:51:17.090Z,49.39
2022-08-16T22:53:43.770Z,49.32
2022-08-16T22:56:10.421Z,49.40
2022-08-16T22:58:37.453Z,49.80
2022-08-16T23:01:06.662Z,49.85
2022-08-16T23:03:33.561Z,49.61
2022-08-16T23:06:00.736Z,49.60
2022-08-16T23:08:39.541Z,49.87
2022-08-16T23:11:13.348Z,50.21
2022-08-16T23:13:50.080Z,49.65
2022-08-16T23:16:33.700Z,49.48
2022-08-16T23:19:06.875Z,50.00
2022-08-16T23:21:33.822Z,49.87
2022-08-16T23:24:01.050Z,49.95
2022-08-16T23:26:44.235Z,49.86
2022-08-16T23:29:24.451Z,50.18
2022-08-16T23:31:57.929Z,49.61
2022-08-16T23:34:26.650Z,49.43
2022-08-16T23:36:53.369Z,49.27
2022-08-16T23:39:20.040Z,49.50
2022-08-16T23:41:46.685Z,49.47
2022-08-16T23:44:56.779Z,49.56
2022-08-16T23:47:01.119Z,49.75
2022-08-16T23:50:02.532Z,49.82
2022-08-16T23:52:14.563Z,49.58
2022-08-16T23:54:41.266Z,50.03
2022-08-16T23:57:08.347Z,50.09
2022-08-16T23:59:52.224Z,50.22
